createdAt,value
2018-08-06T00:02:19.130Z,2.73
2018-08-06T00:04:46.749Z,3.33
2018-08-06T00:07:14.423Z,3.70
2018-08-06T00:09:42.071Z,3.00
2018-08-06T00:12:09.629Z,3.07
2018-08-06T00:14:37.637Z,2.70
2018-08-06T00:17:05.709Z,2.70
2018-08-06T00:19:33.363Z,3.13
2018-08-06T00:22:00.965Z,2.57
2018-08-06T00:24:28.595Z,2.70
2018-08-06T00:26:56.522Z,2.70
2018-08-06T00:29:24.122Z,3.07
2018-08-06T00:31:51.812Z,3.43
2018-08-06T00:34:19.418Z,2.80
2018-08-06T00:36:47.043Z,2.73
2018-08-06T00:39:14.750Z,2.60
2018-08-06T00:41:42.262Z,1.87
2018-08-06T00:44:09.914Z,3.07
2018-08-06T00:46:38.189Z,2.83
2018-08-06T00:49:05.956Z,3.30
2018-08-06T00:51:33.554Z,2.20
2018-08-06T00:54:01.144Z,2.20
2018-08-06T00:56:29.351Z,2.53
2018-08-06T00:58:56.968Z,2.33
2018-08-06T01:01:24.589Z,1.73
2018-08-06T01:03:52.262Z,2.70
2018-08-06T01:06:19.903Z,2.00
2018-08-06T01:08:47.555Z,2.20
2018-08-06T01:11:15.263Z,2.27
2018-08-06T01:13:43.005Z,1.77
2018-08-06T01:16:10.737Z,1.67
2018-08-06T01:18:38.373Z,2.50
2018-08-06T01:21:06.269Z,1.93
2018-08-06T01:23:34.010Z,2.90
2018-08-06T01:26:01.718Z,2.27
2018-08-06T01:28:29.316Z,1.60
2018-08-06T01:30:56.979Z,2.80
2018-08-06T01:33:24.565Z,2.00
2018-08-06T01:35:52.182Z,2.87
2018-08-06T01:38:19.828Z,2.53
2018-08-06T01:40:47.454Z,2.27
2018-08-06T01:43:15.063Z,1.87
2018-08-06T01:45:42.704Z,3.00
2018-08-06T01:48:10.275Z,2.23
2018-08-06T01:50:37.871Z,2.13
2018-08-06T01:53:05.471Z,2.50
2018-08-06T01:55:33.083Z,2.07
2018-08-06T01:58:00.684Z,2.60
2018-08-06T02:00:28.345Z,3.37
2018-08-06T02:02:55.898Z,2.23
2018-08-06T02:05:23.487Z,2.00
2018-08-06T02:07:51.097Z,2.60
2018-08-06T02:10:18.725Z,2.83
2018-08-06T02:12:46.310Z,2.20
2018-08-06T02:15:14.009Z,3.10
2018-08-06T02:17:41.699Z,2.70
2018-08-06T02:20:14.442Z,3.60
2018-08-06T02:22:42.346Z,2.13
2018-08-06T02:25:10.509Z,2.87
2018-08-06T02:27:38.166Z,2.70
2018-08-06T02:30:09.267Z,2.37
2018-08-06T02:32:36.885Z,2.47
2018-08-06T02:35:06.225Z,2.70
2018-08-06T02:37:33.840Z,2.30
2018-08-06T02:40:01.490Z,2.40
2018-08-06T02:42:29.042Z,2.67
2018-08-06T02:44:56.914Z,2.60
2018-08-06T02:47:24.477Z,2.53
2018-08-06T02:49:52.072Z,2.60
2018-08-06T02:52:19.690Z,2.63
2018-08-06T02:54:47.328Z,2.50
2018-08-06T02:57:14.940Z,2.37
2018-08-06T02:59:42.576Z,2.10
2018-08-06T03:02:10.217Z,2.03
2018-08-06T03:04:37.851Z,2.20
2018-08-06T03:07:05.430Z,2.70
2018-08-06T03:09:33.043Z,2.93
2018-08-06T03:12:00.716Z,2.70
2018-08-06T03:14:28.373Z,2.80
2018-08-06T03:16:55.997Z,2.43
2018-08-06T03:19:23.609Z,2.67
2018-08-06T03:21:51.331Z,2.43
2018-08-06T03:24:19.075Z,2.27
2018-08-06T03:26:46.749Z,2.60
2018-08-06T03:29:14.415Z,2.00
2018-08-06T03:31:42.134Z,2.20
2018-08-06T03:34:09.813Z,2.50
2018-08-06T03:36:37.449Z,2.60
2018-08-06T03:39:08.466Z,1.90
2018-08-06T03:41:36.266Z,2.20
2018-08-06T03:44:04.744Z,2.30
2018-08-06T03:46:32.377Z,2.30
2018-08-06T03:49:00.025Z,1.70
2018-08-06T03:51:27.654Z,2.00
2018-08-06T03:53:55.315Z,2.67
2018-08-06T03:56:22.932Z,2.20
2018-08-06T03:58:51.379Z,3.00
2018-08-06T04:01:18.953Z,2.00
2018-08-06T04:03:46.849Z,2.27
2018-08-06T04:06:14.698Z,2.17
2018-08-06T04:08:42.311Z,2.30
2018-08-06T04:11:09.953Z,2.30
2018-08-06T04:13:37.758Z,2.53
2018-08-06T04:16:05.308Z,2.47
2018-08-06T04:18:32.878Z,2.53
2018-08-06T04:21:01.228Z,2.73
2018-08-06T04:23:28.828Z,1.80
2018-08-06T04:25:56.456Z,2.60
2018-08-06T04:28:24.140Z,2.37
2018-08-06T04:30:51.763Z,2.73
2018-08-06T04:33:19.343Z,2.83
2018-08-06T04:35:48.152Z,2.60
2018-08-06T04:38:15.741Z,2.20
2018-08-06T04:40:43.354Z,1.90
2018-08-06T04:43:10.913Z,2.40
2018-08-06T04:45:38.525Z,2.20
2018-08-06T04:48:06.206Z,2.37
2018-08-06T04:50:33.763Z,2.30
2018-08-06T04:53:01.364Z,2.43
2018-08-06T04:55:29.037Z,1.90
2018-08-06T04:57:56.653Z,2.13
2018-08-06T05:00:24.223Z,2.03
2018-08-06T05:02:51.791Z,1.90
2018-08-06T05:05:19.382Z,2.00
2018-08-06T05:07:46.979Z,2.10
2018-08-06T05:10:14.525Z,2.47
2018-08-06T05:12:42.211Z,2.20
2018-08-06T05:15:09.783Z,1.90
2018-08-06T05:17:37.377Z,2.10
2018-08-06T05:20:05.029Z,2.20
2018-08-06T05:22:32.648Z,1.80
2018-08-06T05:25:00.236Z,1.70
2018-08-06T05:27:27.852Z,1.93
2018-08-06T05:29:55.428Z,2.17
2018-08-06T05:32:23.037Z,1.73
2018-08-06T05:34:50.708Z,2.23
2018-08-06T05:37:18.636Z,1.63
2018-08-06T05:39:46.202Z,1.77
2018-08-06T05:42:13.914Z,1.97
2018-08-06T05:44:41.639Z,1.77
2018-08-06T05:47:09.353Z,1.87
2018-08-06T05:49:37.085Z,1.87
2018-08-06T05:52:04.961Z,2.10
2018-08-06T05:54:32.520Z,1.73
2018-08-06T05:57:00.145Z,2.30
2018-08-06T05:59:27.905Z,2.23
2018-08-06T06:01:55.558Z,2.17
2018-08-06T06:04:23.263Z,2.07
2018-08-06T06:06:50.987Z,2.37
2018-08-06T06:09:18.615Z,2.00
2018-08-06T06:11:46.373Z,1.73
2018-08-06T06:14:14.123Z,1.83
2018-08-06T06:16:41.882Z,1.70
2018-08-06T06:19:09.652Z,2.83
2018-08-06T06:21:37.412Z,1.90
2018-08-06T06:24:05.181Z,1.87
2018-08-06T06:26:32.866Z,1.87
2018-08-06T06:29:00.561Z,2.50
2018-08-06T06:31:28.204Z,2.87
2018-08-06T06:33:55.984Z,1.97
2018-08-06T06:36:23.671Z,2.10
2018-08-06T06:38:51.327Z,1.90
2018-08-06T06:41:19.045Z,2.33
2018-08-06T06:43:46.837Z,1.77
2018-08-06T06:46:14.512Z,1.77
2018-08-06T06:48:42.191Z,1.40
2018-08-06T06:51:09.911Z,1.60
2018-08-06T06:53:37.602Z,1.90
2018-08-06T06:56:05.584Z,2.30
2018-08-06T06:58:33.351Z,2.27
2018-08-06T07:01:01.015Z,2.13
2018-08-06T07:03:28.683Z,2.10
2018-08-06T07:05:56.384Z,2.00
2018-08-06T07:08:24.058Z,1.77
2018-08-06T07:10:51.772Z,2.07
2018-08-06T07:13:19.408Z,1.77
2018-08-06T07:15:47.079Z,2.57
2018-08-06T07:47:55.140Z,2.27
2018-08-06T07:50:22.739Z,2.03
2018-08-06T07:52:50.388Z,1.60
2018-08-06T07:55:18.016Z,1.80
2018-08-06T07:57:45.638Z,2.00
2018-08-06T08:00:18.295Z,2.70
2018-08-06T08:02:45.946Z,1.70
2018-08-06T08:05:14.924Z,2.10
2018-08-06T08:07:44.153Z,1.77
2018-08-06T08:10:15.187Z,1.70
2018-08-06T08:12:43.473Z,1.97
2018-08-06T08:15:14.318Z,1.57
2018-08-06T08:17:42.803Z,1.63
2018-08-06T08:20:12.542Z,1.57
2018-08-06T08:22:41.202Z,1.20
2018-08-06T08:25:11.682Z,1.43
2018-08-06T08:27:39.455Z,1.03
2018-08-06T08:30:09.053Z,1.00
2018-08-06T08:32:36.753Z,1.53
2018-08-06T08:35:04.903Z,1.40
2018-08-06T08:37:33.626Z,1.13
2018-08-06T08:40:01.597Z,1.27
2018-08-06T08:42:29.178Z,1.47
2018-08-06T08:44:56.790Z,1.23
2018-08-06T08:47:24.460Z,2.00
2018-08-06T08:49:52.079Z,1.20
2018-08-06T08:52:19.676Z,1.00
2018-08-06T08:54:47.420Z,1.67
2018-08-06T08:57:15.055Z,1.60
2018-08-06T08:59:42.679Z,1.53
2018-08-06T09:02:10.266Z,1.30
2018-08-06T09:04:37.950Z,1.40
2018-08-06T09:07:05.560Z,1.00
2018-08-06T09:09:33.145Z,1.30
2018-08-06T09:12:00.723Z,1.20
2018-08-06T09:14:28.315Z,1.83
2018-08-06T09:16:55.994Z,1.30
2018-08-06T09:19:23.652Z,1.10
2018-08-06T09:21:51.235Z,1.40
2018-08-06T09:24:18.929Z,1.30
2018-08-06T09:26:46.716Z,0.90
2018-08-06T09:29:14.327Z,1.00
2018-08-06T09:31:42.018Z,1.37
2018-08-06T09:34:09.692Z,1.10
2018-08-06T09:36:37.410Z,1.17
2018-08-06T09:39:09.811Z,0.90
2018-08-06T09:41:37.859Z,1.50
2018-08-06T09:44:05.838Z,2.10
2018-08-06T09:46:33.939Z,1.73
2018-08-06T09:49:01.713Z,1.27
2018-08-06T09:51:29.482Z,1.00
2018-08-06T09:53:57.317Z,1.47
2018-08-06T09:56:25.591Z,0.87
2018-08-06T09:58:53.340Z,1.33
2018-08-06T10:01:26.854Z,1.20
2018-08-06T10:03:54.740Z,1.00
2018-08-06T10:06:22.516Z,2.07
2018-08-06T10:08:50.077Z,1.60
2018-08-06T10:11:17.745Z,1.50
2018-08-06T10:13:45.391Z,1.10
2018-08-06T10:16:13.087Z,1.30
2018-08-06T10:18:40.806Z,1.50
2018-08-06T10:21:08.549Z,2.33
2018-08-06T10:23:36.235Z,1.30
2018-08-06T10:26:03.983Z,1.60
2018-08-06T10:28:31.662Z,1.40
2018-08-06T10:30:59.245Z,1.60
2018-08-06T10:33:26.841Z,2.63
2018-08-06T10:35:54.433Z,1.33
2018-08-06T10:38:22.731Z,1.97
2018-08-06T10:40:50.354Z,2.30
2018-08-06T10:43:17.928Z,1.50
2018-08-06T10:45:45.588Z,1.83
2018-08-06T10:48:13.286Z,1.80
2018-08-06T10:50:41.134Z,1.40
2018-08-06T10:53:08.799Z,1.47
2018-08-06T10:55:36.399Z,1.97
2018-08-06T10:58:04.391Z,1.37
2018-08-06T11:00:32.081Z,1.73
2018-08-06T11:02:59.762Z,1.70
2018-08-06T11:05:27.569Z,1.63
2018-08-06T11:07:55.584Z,2.00
2018-08-06T11:10:23.750Z,2.40
2018-08-06T11:12:51.395Z,1.53
2018-08-06T11:15:24.311Z,1.57
2018-08-06T11:17:51.903Z,1.60
2018-08-06T11:20:20.223Z,2.00
2018-08-06T11:22:47.819Z,1.53
2018-08-06T11:25:18.226Z,1.40
2018-08-06T11:27:46.290Z,1.67
2018-08-06T11:30:16.438Z,1.20
2018-08-06T11:32:44.898Z,2.00
2018-08-06T11:35:13.896Z,1.70
2018-08-06T11:37:41.757Z,1.33
2018-08-06T11:40:11.364Z,1.77
2018-08-06T11:42:39.778Z,1.50
2018-08-06T11:45:10.960Z,1.70
2018-08-06T11:47:38.613Z,1.70
2018-08-06T11:50:07.110Z,1.63
2018-08-06T11:52:34.714Z,1.37
2018-08-06T11:55:02.372Z,1.60
2018-08-06T11:57:29.991Z,1.60
2018-08-06T11:59:57.801Z,1.40
2018-08-06T12:02:25.977Z,1.90
2018-08-06T12:04:53.621Z,4.10
2018-08-06T12:07:21.281Z,1.97
2018-08-06T12:09:48.949Z,1.57
2018-08-06T12:12:17.119Z,1.30
2018-08-06T12:14:44.769Z,1.73
2018-08-06T12:17:12.481Z,1.57
2018-08-06T12:19:41.361Z,1.77
2018-08-06T12:22:08.985Z,1.77
2018-08-06T12:24:36.557Z,1.87
2018-08-06T12:27:05.593Z,1.83
2018-08-06T12:29:33.219Z,1.03
2018-08-06T12:32:00.876Z,1.80
2018-08-06T12:49:13.353Z,1.67
2018-08-06T12:51:40.993Z,1.40
2018-08-06T12:54:09.815Z,1.37
2018-08-06T12:56:37.489Z,1.37
2018-08-06T12:59:05.446Z,1.17
2018-08-06T13:01:33.081Z,1.57
2018-08-06T13:04:00.661Z,1.37
2018-08-06T13:06:28.302Z,1.33
2018-08-06T13:08:56.773Z,1.67
2018-08-06T13:11:24.427Z,1.73
2018-08-06T13:13:52.001Z,1.23
2018-08-06T13:16:19.631Z,1.60
2018-08-06T13:18:47.291Z,1.73
2018-08-06T13:21:14.913Z,1.30
2018-08-06T13:23:42.508Z,1.40
2018-08-06T13:26:10.323Z,1.40
2018-08-06T13:28:37.896Z,1.63
2018-08-06T13:31:05.941Z,1.40
2018-08-06T13:33:33.613Z,1.87
2018-08-06T13:36:01.258Z,1.37
2018-08-06T13:38:28.848Z,1.47
2018-08-06T13:40:56.494Z,1.07
2018-08-06T13:43:24.074Z,1.40
2018-08-06T13:45:51.688Z,1.47
2018-08-06T13:48:19.298Z,2.17
2018-08-06T13:50:47.026Z,2.73
2018-08-06T13:53:14.786Z,1.60
2018-08-06T13:55:42.376Z,1.50
2018-08-06T13:58:10.042Z,1.70
2018-08-06T14:00:38.133Z,2.03
2018-08-06T14:03:05.966Z,1.30
2018-08-06T14:05:33.566Z,1.33
2018-08-06T14:08:01.149Z,1.33
2018-08-06T14:10:28.780Z,1.50
2018-08-06T14:12:56.373Z,1.20
2018-08-06T14:15:23.981Z,1.60
2018-08-06T14:17:51.633Z,1.03
2018-08-06T14:20:19.223Z,1.50
2018-08-06T14:22:46.853Z,1.67
2018-08-06T14:25:14.389Z,1.50
2018-08-06T14:27:42.027Z,1.30
2018-08-06T14:30:12.819Z,1.20
2018-08-06T14:32:41.182Z,1.30
2018-08-06T14:35:09.208Z,1.20
2018-08-06T14:37:36.755Z,0.90
2018-08-06T14:40:08.342Z,4.00
2018-08-06T14:42:35.905Z,5.53
2018-08-06T14:45:05.498Z,1.13
2018-08-06T14:47:33.124Z,0.90
2018-08-06T14:50:00.702Z,1.03
2018-08-06T14:52:28.324Z,0.90
2018-08-06T14:54:55.954Z,0.90
2018-08-06T14:57:23.546Z,1.00
2018-08-06T14:59:51.145Z,0.90
2018-08-06T15:02:18.772Z,1.10
2018-08-06T15:04:46.340Z,1.10
2018-08-06T15:07:13.936Z,1.23
2018-08-06T15:09:42.667Z,0.90
2018-08-06T15:12:10.309Z,0.90
2018-08-06T15:14:37.981Z,0.90
2018-08-06T15:17:05.668Z,0.83
2018-08-06T15:19:33.310Z,1.10
2018-08-06T15:22:01.012Z,1.23
2018-08-06T15:24:28.593Z,1.00
2018-08-06T15:26:56.181Z,6.07
2018-08-06T15:29:23.825Z,1.03
2018-08-06T15:31:51.426Z,1.10
2018-08-06T15:34:19.046Z,0.80
2018-08-06T15:36:46.662Z,2.20
2018-08-06T15:39:14.790Z,1.23
2018-08-06T15:41:44.097Z,1.30
2018-08-06T15:44:11.750Z,1.10
2018-08-06T15:46:40.674Z,1.10
2018-08-06T15:49:08.218Z,1.07
2018-08-06T15:51:36.220Z,0.90
2018-08-06T15:54:03.757Z,1.30
2018-08-06T15:56:31.570Z,0.80
2018-08-06T15:58:59.169Z,0.90
2018-08-06T16:01:26.750Z,1.10
2018-08-06T16:03:54.875Z,1.00
2018-08-06T16:06:22.274Z,0.90
2018-08-06T16:08:49.876Z,1.30
2018-08-06T16:11:17.537Z,1.00
2018-08-06T16:13:45.277Z,2.60
2018-08-06T16:16:12.849Z,0.90
2018-08-06T16:18:40.433Z,1.17
2018-08-06T16:21:08.094Z,1.20
2018-08-06T16:23:35.759Z,1.80
2018-08-06T16:26:03.423Z,0.90
2018-08-06T16:28:31.027Z,1.70
2018-08-06T16:30:58.624Z,1.07
2018-08-06T16:33:26.350Z,1.10
2018-08-06T16:35:53.914Z,1.50
2018-08-06T16:38:21.616Z,2.10
2018-08-06T16:40:49.301Z,0.90
2018-08-06T16:43:16.956Z,0.90
2018-08-06T16:45:44.630Z,0.90
2018-08-06T16:48:12.352Z,0.93
2018-08-06T16:50:39.930Z,0.90
2018-08-06T16:53:07.629Z,0.90
2018-08-06T16:55:35.236Z,1.07
2018-08-06T16:58:02.826Z,0.90
2018-08-06T17:00:30.454Z,1.00
2018-08-06T17:02:58.066Z,1.13
2018-08-06T17:05:25.687Z,0.90
2018-08-06T17:07:53.556Z,0.80
2018-08-06T17:10:21.483Z,1.00
2018-08-06T17:12:51.131Z,0.90
2018-08-06T17:15:19.813Z,1.00
2018-08-06T17:17:48.788Z,1.10
2018-08-06T17:20:18.399Z,0.83
2018-08-06T17:22:47.146Z,0.77
2018-08-06T17:25:14.939Z,0.93
2018-08-06T17:27:42.712Z,1.03
2018-08-06T17:30:11.594Z,1.30
2018-08-06T17:32:39.502Z,1.03
2018-08-06T17:35:09.766Z,1.00
2018-08-06T17:37:37.428Z,1.00
2018-08-06T17:40:08.714Z,0.97
2018-08-06T17:42:36.588Z,1.00
2018-08-06T17:45:06.190Z,0.93
2018-08-06T17:47:33.778Z,1.63
2018-08-06T17:50:01.443Z,1.20
2018-08-06T17:52:29.062Z,1.97
2018-08-06T17:54:56.712Z,1.70
2018-08-06T17:57:24.368Z,1.00
2018-08-06T17:59:51.909Z,1.13
2018-08-06T18:02:19.496Z,1.10
2018-08-06T18:04:47.049Z,1.20
2018-08-06T18:07:14.814Z,1.53
2018-08-06T18:09:42.422Z,1.20
2018-08-06T18:12:10.013Z,1.30
2018-08-06T18:14:37.663Z,1.40
2018-08-06T18:17:05.318Z,1.47
2018-08-06T18:19:32.979Z,1.30
2018-08-06T18:22:00.632Z,1.00
2018-08-06T18:24:28.267Z,1.70
2018-08-06T18:26:55.952Z,1.97
2018-08-06T18:29:23.680Z,1.13
2018-08-06T18:31:52.543Z,1.33
2018-08-06T18:34:20.255Z,1.50
2018-08-06T18:36:48.521Z,1.20
2018-08-06T18:39:23.142Z,1.30
2018-08-06T18:41:50.746Z,1.40
2018-08-06T18:44:18.470Z,1.90
2018-08-06T18:46:46.084Z,2.87
2018-08-06T18:49:13.714Z,6.33
2018-08-06T18:51:41.388Z,9.53
2018-08-06T18:54:09.072Z,45.10
2018-08-06T18:56:36.725Z,12.33
2018-08-06T18:59:04.524Z,51.23
2018-08-06T19:01:32.241Z,36.80
2018-08-06T19:03:59.915Z,42.93
2018-08-06T19:06:27.586Z,9.10
2018-08-06T19:08:55.191Z,13.33
2018-08-06T19:11:22.904Z,3.37
2018-08-06T19:13:56.421Z,5.40
2018-08-06T19:16:24.167Z,1.83
2018-08-06T19:18:57.670Z,2.10
2018-08-06T19:21:25.362Z,5.90
2018-08-06T19:23:58.836Z,2.70
2018-08-06T19:26:26.510Z,8.00
2018-08-06T19:28:54.219Z,2.27
2018-08-06T19:31:24.929Z,3.23
2018-08-06T19:33:53.023Z,1.90
2018-08-06T19:36:20.944Z,2.00
2018-08-06T19:38:48.658Z,1.50
2018-08-06T19:41:16.369Z,2.17
2018-08-06T19:43:44.111Z,1.80
2018-08-06T19:46:11.736Z,1.37
2018-08-06T19:48:39.437Z,1.33
2018-08-06T19:51:07.145Z,3.70
2018-08-06T19:53:34.916Z,1.50
2018-08-06T19:56:08.225Z,1.67
2018-08-06T19:58:35.915Z,1.90
2018-08-06T20:01:03.568Z,1.33
2018-08-06T20:03:31.297Z,3.90
2018-08-06T20:05:58.977Z,2.60
2018-08-06T20:08:26.746Z,1.30
2018-08-06T20:10:54.405Z,2.70
2018-08-06T20:13:22.049Z,2.83
2018-08-06T20:15:49.698Z,1.83
2018-08-06T20:18:17.398Z,2.00
2018-08-06T20:20:45.077Z,1.37
2018-08-06T20:23:12.842Z,1.50
2018-08-06T20:25:41.070Z,1.43
2018-08-06T20:28:08.910Z,1.90
2018-08-06T20:30:36.630Z,1.30
2018-08-06T20:33:05.396Z,2.17
2018-08-06T20:35:33.153Z,2.17
2018-08-06T20:38:00.779Z,1.97
2018-08-06T20:40:28.378Z,2.53
2018-08-06T20:42:56.058Z,2.17
2018-08-06T20:45:23.637Z,1.40
2018-08-06T20:47:51.274Z,1.70
2018-08-06T20:50:20.789Z,1.63
2018-08-06T20:52:49.594Z,1.50
2018-08-06T20:55:17.275Z,1.77
2018-08-06T20:57:45.143Z,1.43
2018-08-06T21:00:17.789Z,1.93
2018-08-06T21:02:46.257Z,2.20
2018-08-06T21:05:13.828Z,1.43
2018-08-06T21:07:41.566Z,2.40
2018-08-06T21:10:11.073Z,1.30
2018-08-06T21:12:38.750Z,1.60
2018-08-06T21:15:07.250Z,1.97
2018-08-06T21:17:35.342Z,1.80
2018-08-06T21:20:03.565Z,1.87
2018-08-06T21:22:31.448Z,1.93
2018-08-06T21:24:59.199Z,2.03
2018-08-06T21:27:27.104Z,2.00
2018-08-06T21:29:54.748Z,1.63
2018-08-06T21:32:22.614Z,2.20
2018-08-06T21:34:50.224Z,2.17
2018-08-06T21:37:17.864Z,7.13
2018-08-06T21:39:45.441Z,4.50
2018-08-06T21:42:13.057Z,3.60
2018-08-06T21:44:40.727Z,3.30
2018-08-06T21:47:08.483Z,2.80
2018-08-06T21:49:36.110Z,2.70
2018-08-06T21:52:03.729Z,2.63
2018-08-06T21:54:31.317Z,2.50
2018-08-06T21:56:58.845Z,2.57
2018-08-06T21:59:26.531Z,2.37
